createdAt,value
2022-10-19T00:00:33.177Z,82.87
2022-10-19T00:02:59.904Z,82.79
2022-10-19T00:05:28.182Z,82.95
2022-10-19T00:07:55.688Z,83.21
2022-10-19T00:10:22.437Z,83.23
2022-10-19T00:15:21.027Z,83.01
2022-10-19T00:17:47.700Z,83.02
2022-10-19T00:20:14.459Z,83.24
2022-10-19T00:22:41.182Z,83.07
2022-10-19T00:25:08.618Z,83.07
2022-10-19T00:27:35.932Z,83.08
2022-10-19T00:30:03.136Z,82.96
2022-10-19T00:32:29.990Z,83.35
2022-10-19T00:34:57.877Z,83.41
2022-10-19T00:37:24.664Z,83.89
2022-10-19T00:42:23.073Z,84.20
2022-10-19T00:44:49.895Z,84.40
2022-10-19T00:47:20.357Z,84.65
2022-10-19T00:49:47.240Z,84.69
2022-10-19T00:52:18.166Z,84.58
2022-10-19T00:54:48.249Z,84.72
2022-10-19T00:57:15.601Z,84.72
2022-10-19T00:59:45.545Z,84.50
2022-10-19T01:02:12.958Z,84.39
2022-10-19T01:04:44.872Z,84.47
2022-10-19T01:07:12.858Z,84.68
2022-10-19T01:09:39.672Z,84.73
2022-10-19T01:12:31.347Z,84.82
2022-10-19T01:15:13.448Z,85.13
2022-10-19T01:17:48.883Z,85.07
2022-10-19T01:20:33.139Z,85.34
2022-10-19T01:23:00.936Z,85.25
2022-10-19T01:25:30.976Z,85.33
2022-10-19T01:28:29.094Z,85.47
2022-10-19T01:31:23.635Z,85.60
2022-10-19T01:34:07.111Z,85.72
2022-10-19T01:36:42.335Z,85.69
2022-10-19T01:39:15.780Z,85.75
2022-10-19T01:41:55.369Z,85.57
2022-10-19T01:44:25.394Z,85.76
2022-10-19T01:46:58.229Z,85.92
2022-10-19T01:49:34.282Z,85.75
2022-10-19T01:52:06.428Z,85.85
2022-10-19T01:54:39.083Z,85.78
2022-10-19T01:57:09.308Z,85.91
2022-10-19T01:59:37.361Z,85.79
2022-10-19T02:02:08.020Z,85.80
2022-10-19T02:04:36.885Z,85.53
2022-10-19T02:07:05.642Z,85.62
2022-10-19T02:09:33.205Z,85.66
2022-10-19T02:12:03.864Z,85.83
2022-10-19T02:14:35.572Z,85.72
2022-10-19T02:17:08.455Z,85.77
2022-10-19T02:19:35.660Z,85.63
2022-10-19T02:22:02.708Z,85.35
2022-10-19T02:24:29.424Z,85.45
2022-10-19T02:26:57.188Z,85.38
2022-10-19T02:29:24.043Z,85.35
2022-10-19T02:31:50.812Z,85.39
2022-10-19T02:34:17.581Z,85.31
2022-10-19T02:36:44.343Z,85.21
2022-10-19T02:39:11.304Z,85.28
2022-10-19T02:41:45.938Z,85.38
2022-10-19T02:44:22.791Z,85.02
2022-10-19T02:46:59.200Z,84.71
2022-10-19T02:49:27.760Z,84.38
2022-10-19T02:52:05.029Z,84.10
2022-10-19T02:54:32.531Z,84.07
2022-10-19T02:56:59.497Z,84.42
2022-10-19T02:59:26.419Z,84.84
2022-10-19T03:01:53.263Z,85.45
2022-10-19T03:04:20.014Z,85.39
2022-10-19T03:06:46.893Z,85.16
2022-10-19T03:09:13.696Z,85.02
2022-10-19T03:12:31.024Z,85.23
2022-10-19T03:15:19.880Z,85.98
2022-10-19T03:17:46.673Z,86.55
2022-10-19T03:20:13.465Z,86.68
2022-10-19T03:22:40.309Z,86.55
2022-10-19T03:25:07.986Z,86.44
2022-10-19T03:27:35.053Z,86.14
2022-10-19T03:30:02.201Z,86.26
2022-10-19T03:32:29.040Z,86.27
2022-10-19T03:34:55.764Z,86.66
2022-10-19T03:37:22.532Z,86.55
2022-10-19T03:39:49.365Z,86.25
2022-10-19T03:42:16.028Z,86.12
2022-10-19T03:44:42.962Z,85.56
2022-10-19T03:47:09.819Z,85.54
2022-10-19T03:49:39.551Z,85.48
2022-10-19T03:52:07.586Z,85.62
2022-10-19T03:54:34.253Z,85.40
2022-10-19T03:57:00.972Z,85.38
2022-10-19T03:59:27.939Z,85.06
2022-10-19T04:01:54.726Z,84.57
2022-10-19T04:04:21.524Z,84.27
2022-10-19T04:06:50.252Z,83.87
2022-10-19T04:09:19.133Z,84.14
2022-10-19T04:11:46.095Z,84.06
2022-10-19T04:14:22.761Z,84.13
2022-10-19T04:17:01.170Z,84.30
2022-10-19T04:19:27.941Z,84.25
2022-10-19T04:21:54.676Z,83.75
2022-10-19T04:24:21.408Z,83.50
2022-10-19T04:26:51.068Z,83.23
2022-10-19T04:29:19.616Z,82.97
2022-10-19T04:31:48.370Z,82.77
2022-10-19T04:34:15.248Z,82.78
2022-10-19T04:36:42.056Z,82.72
2022-10-19T04:39:09.205Z,82.56
2022-10-19T04:41:37.894Z,82.50
2022-10-19T04:44:06.819Z,82.39
2022-10-19T04:46:34.034Z,82.44
2022-10-19T04:49:01.166Z,83.01
2022-10-19T04:51:28.127Z,83.26
2022-10-19T04:53:59.383Z,83.16
2022-10-19T04:56:28.231Z,82.87
2022-10-19T04:58:57.714Z,82.76
2022-10-19T05:01:26.391Z,82.86
2022-10-19T05:06:27.274Z,83.27
2022-10-19T05:08:54.380Z,83.43
2022-10-19T05:11:21.468Z,83.49
2022-10-19T05:13:48.931Z,83.27
2022-10-19T05:16:19.351Z,83.35
2022-10-19T05:18:48.977Z,83.37
2022-10-19T05:21:16.683Z,83.32
2022-10-19T05:23:44.030Z,83.22
2022-10-19T05:26:15.494Z,83.14
2022-10-19T05:28:42.314Z,83.08
2022-10-19T05:31:12.559Z,83.19
2022-10-19T05:33:40.530Z,83.37
2022-10-19T05:36:26.217Z,83.35
2022-10-19T05:38:54.955Z,83.47
2022-10-19T05:41:23.326Z,82.84
2022-10-19T05:43:58.103Z,82.89
2022-10-19T05:46:26.882Z,82.76
2022-10-19T05:48:56.098Z,83.12
2022-10-19T05:51:24.583Z,82.81
2022-10-19T05:53:53.084Z,83.08
2022-10-19T05:56:22.607Z,83.52
2022-10-19T05:58:49.959Z,83.64
2022-10-19T06:01:19.196Z,83.53
2022-10-19T06:03:47.379Z,83.56
2022-10-19T06:06:14.028Z,83.55
2022-10-19T06:08:40.832Z,83.63
2022-10-19T06:11:11.543Z,83.61
2022-10-19T06:13:39.772Z,83.36
2022-10-19T06:16:08.442Z,83.42
2022-10-19T06:18:37.163Z,83.28
2022-10-19T06:21:07.520Z,83.27
2022-10-19T06:23:35.633Z,83.25
2022-10-19T06:26:07.735Z,83.27
2022-10-19T06:28:36.188Z,83.16
2022-10-19T06:31:06.040Z,82.59
2022-10-19T06:33:35.395Z,82.13
2022-10-19T06:36:08.238Z,82.18
2022-10-19T06:38:35.473Z,82.10
2022-10-19T06:41:02.671Z,82.01
2022-10-19T06:43:29.607Z,82.14
2022-10-19T06:45:56.652Z,82.70
2022-10-19T06:48:25.892Z,81.62
2022-10-19T06:50:57.756Z,81.13
2022-10-19T06:53:25.006Z,80.88
2022-10-19T06:55:51.761Z,81.22
2022-10-19T06:58:18.838Z,81.04
2022-10-19T07:00:45.608Z,81.03
2022-10-19T07:03:12.422Z,80.91
2022-10-19T07:05:40.516Z,80.89
2022-10-19T07:08:08.451Z,80.87
2022-10-19T07:10:37.468Z,80.83
2022-10-19T07:13:04.270Z,80.29
2022-10-19T07:15:30.978Z,80.40
2022-10-19T07:17:58.261Z,80.30
2022-10-19T07:20:24.990Z,80.23
2022-10-19T07:22:51.715Z,80.03
2022-10-19T07:25:18.553Z,79.66
2022-10-19T07:27:45.259Z,79.91
2022-10-19T07:30:12.058Z,79.70
2022-10-19T07:32:39.601Z,79.35
2022-10-19T07:35:08.225Z,79.19
2022-10-19T07:37:36.146Z,79.05
2022-10-19T07:40:06.697Z,78.62
2022-10-19T07:42:33.986Z,78.29
2022-10-19T07:45:00.744Z,77.86
2022-10-19T07:47:27.512Z,77.68
2022-10-19T07:49:54.213Z,77.55
2022-10-19T07:52:21.232Z,77.25
2022-10-19T07:54:49.910Z,75.90
2022-10-19T07:57:16.695Z,74.56
2022-10-19T07:59:44.293Z,73.27
2022-10-19T08:02:16.517Z,72.30
2022-10-19T08:05:03.973Z,71.80
2022-10-19T08:07:36.425Z,70.37
2022-10-19T08:10:04.665Z,69.05
2022-10-19T08:12:31.821Z,68.34
2022-10-19T08:14:58.785Z,67.64
2022-10-19T08:17:25.918Z,65.22
2022-10-19T08:19:52.707Z,63.37
2022-10-19T08:22:19.476Z,61.08
2022-10-19T08:24:46.220Z,61.59
2022-10-19T08:27:14.881Z,62.36
2022-10-19T08:29:41.760Z,62.28
2022-10-19T08:32:08.582Z,63.77
2022-10-19T08:34:35.398Z,63.67
2022-10-19T08:37:10.212Z,63.91
2022-10-19T08:39:46.967Z,65.19
2022-10-19T08:42:21.356Z,65.64
2022-10-19T08:45:10.975Z,65.50
2022-10-19T08:47:59.081Z,64.05
2022-10-19T08:50:37.962Z,64.11
2022-10-19T08:53:24.658Z,62.90
2022-10-19T08:56:14.968Z,62.24
2022-10-19T08:59:08.466Z,62.34
2022-10-19T09:01:49.946Z,62.61
2022-10-19T09:04:21.170Z,62.86
2022-10-19T09:07:03.584Z,63.17
2022-10-19T09:09:32.707Z,63.04
2022-10-19T09:12:05.514Z,61.31
2022-10-19T09:14:38.721Z,61.35
2022-10-19T09:17:14.604Z,61.49
2022-10-19T09:19:41.442Z,61.41
2022-10-19T09:22:19.235Z,61.46
2022-10-19T09:25:01.254Z,59.83
2022-10-19T09:27:36.247Z,60.72
2022-10-19T09:30:15.463Z,58.06
2022-10-19T09:32:42.972Z,57.83
2022-10-19T09:35:29.429Z,57.82
2022-10-19T09:37:57.038Z,57.79
2022-10-19T09:40:27.321Z,58.07
2022-10-19T09:42:58.874Z,56.71
2022-10-19T09:45:32.346Z,56.82
2022-10-19T09:48:08.716Z,54.75
2022-10-19T09:50:43.764Z,53.47
2022-10-19T09:53:20.036Z,51.63
2022-10-19T09:55:58.293Z,49.88
2022-10-19T09:58:32.079Z,50.52
2022-10-19T10:01:01.198Z,50.04
2022-10-19T10:03:28.067Z,50.94
2022-10-19T10:05:58.784Z,52.33
2022-10-19T10:08:32.049Z,53.23
2022-10-19T10:11:07.232Z,53.13
2022-10-19T10:13:42.724Z,54.23
2022-10-19T10:16:14.168Z,54.85
2022-10-19T10:18:59.022Z,54.29
2022-10-19T10:21:32.165Z,55.22
2022-10-19T10:24:06.750Z,56.06
2022-10-19T10:26:40.595Z,57.51
2022-10-19T10:29:18.728Z,57.20
2022-10-19T10:31:49.150Z,57.90
2022-10-19T10:34:30.253Z,58.82
2022-10-19T10:37:08.425Z,58.38
2022-10-19T10:39:44.039Z,58.72
2022-10-19T10:42:17.366Z,58.23
2022-10-19T10:44:49.361Z,57.08
2022-10-19T10:47:21.264Z,56.33
2022-10-19T10:50:00.269Z,55.77
2022-10-19T10:52:30.773Z,56.37
2022-10-19T10:54:59.436Z,55.03
2022-10-19T10:57:31.126Z,55.26
2022-10-19T11:00:07.855Z,54.71
2022-10-19T11:02:47.004Z,54.15
2022-10-19T11:05:31.344Z,55.42
2022-10-19T11:08:06.268Z,55.27
2022-10-19T11:10:43.623Z,55.02
2022-10-19T11:13:25.821Z,55.36
2022-10-19T11:16:01.276Z,57.30
2022-10-19T11:18:38.157Z,56.66
2022-10-19T11:21:11.843Z,56.66
2022-10-19T11:23:54.753Z,56.90
2022-10-19T11:26:47.667Z,56.56
2022-10-19T11:29:33.585Z,56.53
2022-10-19T11:32:09.740Z,56.63
2022-10-19T11:35:07.882Z,58.06
2022-10-19T11:37:37.545Z,57.71
2022-10-19T11:40:30.321Z,57.77
2022-10-19T11:43:20.424Z,56.74
2022-10-19T11:46:09.531Z,56.92
2022-10-19T11:48:54.748Z,56.33
2022-10-19T11:51:28.202Z,56.29
2022-10-19T11:54:03.441Z,56.51
2022-10-19T11:56:44.727Z,56.80
2022-10-19T11:59:40.417Z,56.55
2022-10-19T12:02:22.759Z,56.71
2022-10-19T12:04:54.120Z,57.67
2022-10-19T12:07:32.000Z,57.68
2022-10-19T12:10:02.380Z,58.29
2022-10-19T12:12:43.914Z,58.88
2022-10-19T12:15:11.783Z,59.14
2022-10-19T12:17:41.378Z,59.16
2022-10-19T12:20:20.255Z,59.29
2022-10-19T12:22:49.592Z,59.33
2022-10-19T12:25:18.979Z,59.64
2022-10-19T12:27:48.051Z,59.63
2022-10-19T12:30:17.868Z,59.97
2022-10-19T12:33:00.325Z,60.61
2022-10-19T12:35:58.531Z,59.25
2022-10-19T12:38:35.474Z,58.80
2022-10-19T12:41:30.412Z,58.11
2022-10-19T12:44:22.444Z,58.15
2022-10-19T12:47:00.051Z,58.82
2022-10-19T12:49:29.035Z,58.76
2022-10-19T12:51:58.644Z,57.90
2022-10-19T12:54:31.988Z,59.20
2022-10-19T12:57:00.950Z,59.36
2022-10-19T12:59:32.295Z,59.22
2022-10-19T13:02:01.573Z,59.03
2022-10-19T13:04:32.613Z,59.69
2022-10-19T13:07:10.967Z,58.74
2022-10-19T13:09:42.089Z,59.15
2022-10-19T13:12:19.951Z,60.42
2022-10-19T13:14:52.853Z,59.62
2022-10-19T13:17:38.047Z,59.75
2022-10-19T13:20:20.171Z,59.10
2022-10-19T13:22:49.380Z,58.79
2022-10-19T13:25:16.142Z,58.66
2022-10-19T13:27:44.636Z,59.54
2022-10-19T13:30:34.437Z,59.32
2022-10-19T13:33:28.666Z,59.03
2022-10-19T13:35:58.785Z,59.38
2022-10-19T13:41:11.137Z,59.74
2022-10-19T13:44:09.206Z,59.85
2022-10-19T13:46:57.336Z,60.10
2022-10-19T13:49:35.440Z,60.43
2022-10-19T13:52:17.484Z,60.70
2022-10-19T13:55:00.906Z,60.67
2022-10-19T13:58:00.458Z,60.66
2022-10-19T14:00:45.002Z,61.21
2022-10-19T14:03:23.927Z,60.87
2022-10-19T14:06:10.074Z,61.62
2022-10-19T14:08:38.210Z,61.72
2022-10-19T14:11:15.527Z,61.85
2022-10-19T14:13:43.299Z,61.81
2022-10-19T14:16:20.687Z,62.01
2022-10-19T14:18:56.818Z,62.13
2022-10-19T14:21:38.876Z,62.52
2022-10-19T14:24:21.547Z,62.50
2022-10-19T14:26:48.314Z,63.17
2022-10-19T14:29:15.959Z,62.53
2022-10-19T14:31:43.085Z,62.82
2022-10-19T14:34:10.046Z,62.97
2022-10-19T14:36:39.653Z,62.92
2022-10-19T14:39:07.615Z,63.67
2022-10-19T14:41:37.283Z,63.65
2022-10-19T14:44:30.460Z,63.90
2022-10-19T14:47:00.972Z,64.13
2022-10-19T14:49:27.784Z,64.37
2022-10-19T14:52:01.357Z,64.24
2022-10-19T14:54:41.133Z,64.95
2022-10-19T14:57:15.897Z,64.54
2022-10-19T14:59:46.557Z,65.04
2022-10-19T15:02:24.299Z,64.82
2022-10-19T15:04:54.237Z,65.40
2022-10-19T15:07:25.655Z,64.72
2022-10-19T15:09:58.140Z,64.78
2022-10-19T15:12:41.469Z,64.44
2022-10-19T15:15:13.573Z,64.41
2022-10-19T15:17:52.301Z,64.42
2022-10-19T15:20:44.148Z,64.66
2022-10-19T15:23:44.763Z,65.18
2022-10-19T15:26:21.996Z,65.03
2022-10-19T15:28:49.395Z,65.31
2022-10-19T15:31:24.993Z,65.36
2022-10-19T15:33:54.407Z,65.57
2022-10-19T15:36:22.785Z,65.71
2022-10-19T15:39:17.503Z,66.02
2022-10-19T15:41:49.162Z,65.73
2022-10-19T15:44:33.669Z,66.02
2022-10-19T15:47:19.475Z,66.39
2022-10-19T15:49:53.340Z,66.74
2022-10-19T15:52:22.730Z,66.67
2022-10-19T15:54:51.262Z,66.93
2022-10-19T15:57:30.525Z,67.13
2022-10-19T16:00:01.255Z,67.30
2022-10-19T16:02:31.045Z,67.70
2022-10-19T16:04:58.176Z,67.73
2022-10-19T16:07:29.478Z,67.94
2022-10-19T16:09:57.365Z,68.16
2022-10-19T16:12:26.454Z,68.36
2022-10-19T16:14:54.300Z,68.49
2022-10-19T16:17:21.613Z,68.55
2022-10-19T16:19:48.574Z,68.75
2022-10-19T16:22:16.378Z,68.72
2022-10-19T16:24:43.499Z,68.72
2022-10-19T16:27:15.103Z,68.74
2022-10-19T16:29:44.389Z,68.63
2022-10-19T16:32:11.188Z,68.72
2022-10-19T16:34:38.267Z,68.79
2022-10-19T16:37:06.954Z,68.74
2022-10-19T16:39:34.827Z,68.74
2022-10-19T16:42:01.534Z,68.73
2022-10-19T16:44:28.370Z,69.28
2022-10-19T16:46:57.502Z,69.64
2022-10-19T16:49:28.328Z,69.81
2022-10-19T16:51:57.405Z,69.92
2022-10-19T16:54:26.849Z,69.80
2022-10-19T16:56:55.711Z,69.65
2022-10-19T16:59:22.561Z,69.93
2022-10-19T17:01:49.591Z,70.04
2022-10-19T17:04:18.189Z,70.06
2022-10-19T17:06:45.092Z,70.54
2022-10-19T17:11:59.069Z,71.24
2022-10-19T17:14:26.051Z,71.79
2022-10-19T17:16:52.814Z,71.82
2022-10-19T17:19:19.495Z,72.36
2022-10-19T17:21:47.009Z,72.81
2022-10-19T17:24:21.690Z,73.25
2022-10-19T17:26:51.823Z,73.72
2022-10-19T17:29:20.222Z,74.23
2022-10-19T17:31:48.626Z,74.59
2022-10-19T17:34:16.333Z,74.73
2022-10-19T17:36:45.378Z,74.90
2022-10-19T17:39:17.933Z,74.40
2022-10-19T17:41:47.480Z,74.54
2022-10-19T17:44:14.718Z,74.63
2022-10-19T17:46:42.044Z,74.62
2022-10-19T17:49:10.116Z,74.68
2022-10-19T17:51:38.441Z,74.75
2022-10-19T17:54:08.561Z,74.92
2022-10-19T17:56:37.555Z,74.93
2022-10-19T17:59:05.104Z,74.95
2022-10-19T18:01:31.922Z,75.18
2022-10-19T18:03:58.826Z,75.42
2022-10-19T18:06:28.142Z,75.41
2022-10-19T18:08:56.642Z,75.37
2022-10-19T18:11:27.022Z,75.59
2022-10-19T18:13:57.615Z,75.53
2022-10-19T18:16:28.022Z,75.37
2022-10-19T18:18:57.007Z,75.40
2022-10-19T18:21:27.386Z,75.55
2022-10-19T18:23:56.307Z,75.55
2022-10-19T18:26:25.327Z,75.69
2022-10-19T18:28:53.935Z,75.73
2022-10-19T18:31:23.760Z,75.91
2022-10-19T18:34:00.099Z,76.06
2022-10-19T18:36:28.286Z,75.94
2022-10-19T18:38:58.069Z,76.31
2022-10-19T18:41:26.125Z,76.10
2022-10-19T18:43:54.844Z,76.31
2022-10-19T18:46:24.217Z,76.41
2022-10-19T18:48:51.520Z,76.67
2022-10-19T18:51:20.109Z,76.58
2022-10-19T18:53:47.923Z,76.35
2022-10-19T18:56:17.404Z,76.20
2022-10-19T18:58:44.652Z,76.20
2022-10-19T19:01:16.552Z,76.17
2022-10-19T19:03:46.108Z,75.99
2022-10-19T19:06:15.718Z,75.99
2022-10-19T19:11:19.144Z,76.00
2022-10-19T19:13:49.342Z,76.05
2022-10-19T19:16:16.319Z,75.98
2022-10-19T19:18:43.182Z,75.92
2022-10-19T19:21:19.811Z,75.69
2022-10-19T19:23:48.350Z,75.73
2022-10-19T19:26:34.154Z,75.92
2022-10-19T19:29:00.983Z,76.06
2022-10-19T19:31:28.186Z,75.76
2022-10-19T19:33:55.114Z,75.43
2022-10-19T19:36:22.058Z,75.35
2022-10-19T19:38:51.915Z,75.25
2022-10-19T19:41:18.687Z,75.15
2022-10-19T19:43:45.467Z,75.30
2022-10-19T19:46:15.425Z,75.35
2022-10-19T19:48:44.357Z,75.66
2022-10-19T19:51:15.061Z,75.88
2022-10-19T19:53:42.025Z,76.03
2022-10-19T19:56:10.881Z,76.06
2022-10-19T19:58:37.832Z,75.86
2022-10-19T20:01:13.436Z,76.03
2022-10-19T20:03:41.463Z,76.05
2022-10-19T20:06:09.596Z,76.30
2022-10-19T20:08:37.353Z,76.73
2022-10-19T20:11:07.707Z,76.96
2022-10-19T20:13:35.663Z,77.29
2022-10-19T20:16:12.990Z,77.35
2022-10-19T20:18:41.595Z,77.67
2022-10-19T20:21:08.362Z,77.94
2022-10-19T20:23:35.041Z,78.09
2022-10-19T20:26:02.327Z,78.27
2022-10-19T20:28:31.602Z,78.61
2022-10-19T20:31:00.287Z,78.63
2022-10-19T20:33:29.806Z,78.67
2022-10-19T20:35:57.234Z,78.94
2022-10-19T20:38:25.364Z,79.07
2022-10-19T20:40:52.284Z,78.91
2022-10-19T20:43:18.980Z,79.03
2022-10-19T20:45:45.652Z,79.19
2022-10-19T20:48:12.325Z,79.33
2022-10-19T20:50:39.840Z,79.30
2022-10-19T20:53:06.888Z,79.34
2022-10-19T20:55:33.856Z,78.91
2022-10-19T20:58:00.524Z,78.75
2022-10-19T21:00:27.231Z,78.93
2022-10-19T21:02:53.990Z,78.76
2022-10-19T21:05:20.706Z,78.82
2022-10-19T21:07:47.390Z,78.81
2022-10-19T21:10:14.187Z,78.67
2022-10-19T21:12:41.052Z,78.66
2022-10-19T21:15:08.351Z,78.84
2022-10-19T21:17:36.229Z,79.29
2022-10-19T21:20:04.674Z,78.94
2022-10-19T21:22:34.449Z,78.40
2022-10-19T21:25:04.351Z,77.95
2022-10-19T21:27:31.181Z,77.74
2022-10-19T21:29:57.842Z,78.10
2022-10-19T21:32:24.515Z,77.94
2022-10-19T21:34:51.163Z,77.98
2022-10-19T21:37:17.862Z,77.96
2022-10-19T21:39:44.518Z,77.58
2022-10-19T21:42:11.211Z,77.13
2022-10-19T21:44:37.952Z,76.62
2022-10-19T21:47:04.625Z,76.76
2022-10-19T21:49:31.472Z,76.22
2022-10-19T21:51:58.131Z,76.11
2022-10-19T21:54:25.537Z,76.44
2022-10-19T21:56:53.406Z,76.60
2022-10-19T21:59:20.399Z,76.32
2022-10-19T22:01:47.408Z,76.60
2022-10-19T22:04:17.095Z,76.44
2022-10-19T22:06:44.338Z,76.36
2022-10-19T22:09:14.356Z,76.57
2022-10-19T22:11:41.912Z,76.54
2022-10-19T22:14:11.538Z,76.43
2022-10-19T22:16:40.385Z,76.43
2022-10-19T22:19:07.492Z,76.43
2022-10-19T22:21:35.216Z,75.68
2022-10-19T22:24:06.703Z,75.59
2022-10-19T22:26:37.309Z,75.28
2022-10-19T22:29:06.930Z,75.87
2022-10-19T22:31:36.037Z,76.18
2022-10-19T22:34:07.299Z,76.50
2022-10-19T22:36:34.488Z,76.35
2022-10-19T22:39:01.223Z,76.03
2022-10-19T22:41:28.095Z,76.32
2022-10-19T22:43:54.788Z,76.79
2022-10-19T22:46:21.559Z,77.48
2022-10-19T22:48:48.306Z,78.03
2022-10-19T22:51:15.146Z,78.65
2022-10-19T22:53:42.051Z,79.31
2022-10-19T22:56:12.103Z,79.76
2022-10-19T22:58:39.601Z,80.28
2022-10-19T23:01:11.143Z,80.19
2022-10-19T23:03:40.491Z,79.70
2022-10-19T23:06:09.644Z,79.64
2022-10-19T23:08:37.146Z,79.49
2022-10-19T23:11:03.950Z,79.53
2022-10-19T23:13:30.718Z,79.61
2022-10-19T23:15:57.417Z,79.47
2022-10-19T23:18:24.256Z,79.07
2022-10-19T23:20:55.942Z,79.03
2022-10-19T23:23:23.439Z,78.51
2022-10-19T23:26:04.346Z,78.10
2022-10-19T23:28:32.807Z,77.98
2022-10-19T23:31:04.794Z,78.02
2022-10-19T23:33:32.748Z,78.00
2022-10-19T23:36:05.031Z,77.95
2022-10-19T23:38:31.794Z,78.09
2022-10-19T23:40:58.512Z,77.82
2022-10-19T23:43:25.612Z,77.78
2022-10-19T23:45:52.304Z,77.56
2022-10-19T23:48:19.055Z,77.55
2022-10-19T23:50:45.795Z,77.56
2022-10-19T23:53:12.991Z,77.53
2022-10-19T23:55:39.714Z,77.40
2022-10-19T23:58:06.430Z,77.50
